YLL weather

Lloydminster Airport
Lloydminster, Alberta, Canada

Public forecast

Using degrees Celsius for public forecast. Weather courtesy of forecast.io.

Current aviation weather report (METAR) for Lloydminster Airport

Retrieved 2020/04/07 16:00 UTC (41 minutes ago):

CYLL 071600Z 28017KT 15SM FEW130 SCT250 M02/M06 A2957 RMK AC1CI2 SLP054

Aviation forecast (TAF) for Lloydminster Airport

Retrieved 2020/04/07 12:45 UTC (4 hours ago):

TAF CYLL 071144Z 0712/0724 28012KT P6SM SCT040 FM071600 30015G25KT P6SM SCT020 FM072000 29020G30KT P6SM SCT012 TEMPO 0720/0724 4SM -SHSN BKN012 RMK FCST BASED ON AUTO OBS NXT FCST BY 071800Z